sensor_id;sensor_type;location;lat;lon;timestamp;P1;durP1;ratioP1;P2;durP2;ratioP2
41685;SDS011;27370;42.764;23.432;2023-03-19T00:01:12;30.17;;;13.27;;
41685;SDS011;27370;42.764;23.432;2023-03-19T00:03:38;25.15;;;11.13;;
41685;SDS011;27370;42.764;23.432;2023-03-19T00:06:03;24.25;;;10.48;;
41685;SDS011;27370;42.764;23.432;2023-03-19T00:08:29;19.35;;;9.30;;
41685;SDS011;27370;42.764;23.432;2023-03-19T00:10:55;20.23;;;9.35;;
41685;SDS011;27370;42.764;23.432;2023-03-19T00:13:20;21.70;;;9.32;;
41685;SDS011;27370;42.764;23.432;2023-03-19T00:15:46;22.88;;;9.85;;
41685;SDS011;27370;42.764;23.432;2023-03-19T00:18:12;20.52;;;9.52;;
41685;SDS011;27370;42.764;23.432;2023-03-19T00:20:38;21.75;;;9.88;;
41685;SDS011;27370;42.764;23.432;2023-03-19T00:23:03;22.95;;;10.98;;
41685;SDS011;27370;42.764;23.432;2023-03-19T00:25:29;22.13;;;11.35;;
41685;SDS011;27370;42.764;23.432;2023-03-19T00:27:54;21.33;;;11.23;;
41685;SDS011;27370;42.764;23.432;2023-03-19T00:30:21;20.95;;;10.48;;
41685;SDS011;27370;42.764;23.432;2023-03-19T00:32:47;24.70;;;11.38;;
41685;SDS011;27370;42.764;23.432;2023-03-19T00:35:13;24.42;;;11.15;;
41685;SDS011;27370;42.764;23.432;2023-03-19T00:37:39;21.38;;;11.25;;
41685;SDS011;27370;42.764;23.432;2023-03-19T00:40:06;22.23;;;10.38;;
41685;SDS011;27370;42.764;23.432;2023-03-19T00:42:33;22.73;;;11.68;;
41685;SDS011;27370;42.764;23.432;2023-03-19T00:44:58;22.00;;;11.02;;
41685;SDS011;27370;42.764;23.432;2023-03-19T00:47:24;19.27;;;10.73;;
41685;SDS011;27370;42.764;23.432;2023-03-19T00:49:50;24.27;;;11.05;;
41685;SDS011;27370;42.764;23.432;2023-03-19T00:52:16;24.15;;;11.80;;
41685;SDS011;27370;42.764;23.432;2023-03-19T00:54:42;23.13;;;11.15;;
41685;SDS011;27370;42.764;23.432;2023-03-19T00:57:07;22.33;;;11.68;;
41685;SDS011;27370;42.764;23.432;2023-03-19T00:59:33;25.65;;;12.27;;
41685;SDS011;27370;42.764;23.432;2023-03-19T01:02:00;24.33;;;12.25;;
41685;SDS011;27370;42.764;23.432;2023-03-19T01:04:25;26.50;;;12.15;;
41685;SDS011;27370;42.764;23.432;2023-03-19T01:06:51;24.10;;;12.23;;
41685;SDS011;27370;42.764;23.432;2023-03-19T01:09:17;23.40;;;11.48;;
41685;SDS011;27370;42.764;23.432;2023-03-19T01:11:43;18.73;;;11.18;;
41685;SDS011;27370;42.764;23.432;2023-03-19T01:14:08;21.95;;;11.18;;
41685;SDS011;27370;42.764;23.432;2023-03-19T01:16:34;21.63;;;11.50;;
41685;SDS011;27370;42.764;23.432;2023-03-19T01:19:00;21.83;;;10.77;;
41685;SDS011;27370;42.764;23.432;2023-03-19T01:21:27;20.60;;;10.98;;
41685;SDS011;27370;42.764;23.432;2023-03-19T01:23:56;22.05;;;10.45;;
41685;SDS011;27370;42.764;23.432;2023-03-19T01:26:24;19.10;;;11.45;;
41685;SDS011;27370;42.764;23.432;2023-03-19T01:28:54;18.65;;;10.73;;
41685;SDS011;27370;42.764;23.432;2023-03-19T01:31:21;19.50;;;10.32;;
41685;SDS011;27370;42.764;23.432;2023-03-19T01:33:58;17.27;;;9.00;;
41685;SDS011;27370;42.764;23.432;2023-03-19T01:36:42;16.85;;;8.60;;
41685;SDS011;27370;42.764;23.432;2023-03-19T01:39:07;15.60;;;7.82;;
41685;SDS011;27370;42.764;23.432;2023-03-19T01:41:35;15.18;;;7.80;;
41685;SDS011;27370;42.764;23.432;2023-03-19T01:44:31;15.02;;;8.13;;
41685;SDS011;27370;42.764;23.432;2023-03-19T01:47:35;15.98;;;6.80;;
41685;SDS011;27370;42.764;23.432;2023-03-19T01:50:42;14.57;;;7.28;;
41685;SDS011;27370;42.764;23.432;2023-03-19T01:53:21;15.77;;;7.68;;
41685;SDS011;27370;42.764;23.432;2023-03-19T01:55:59;16.98;;;8.40;;
41685;SDS011;27370;42.764;23.432;2023-03-19T01:58:40;16.77;;;8.80;;
41685;SDS011;27370;42.764;23.432;2023-03-19T02:01:48;18.67;;;8.70;;
41685;SDS011;27370;42.764;23.432;2023-03-19T02:04:19;15.20;;;8.43;;
41685;SDS011;27370;42.764;23.432;2023-03-19T02:06:44;16.38;;;8.07;;
41685;SDS011;27370;42.764;23.432;2023-03-19T02:09:11;15.65;;;8.45;;
41685;SDS011;27370;42.764;23.432;2023-03-19T02:11:39;19.43;;;9.37;;
41685;SDS011;27370;42.764;23.432;2023-03-19T02:14:05;21.85;;;11.90;;
41685;SDS011;27370;42.764;23.432;2023-03-19T02:16:32;16.85;;;9.07;;
41685;SDS011;27370;42.764;23.432;2023-03-19T02:18:57;17.15;;;8.00;;
41685;SDS011;27370;42.764;23.432;2023-03-19T02:21:23;16.60;;;8.05;;
41685;SDS011;27370;42.764;23.432;2023-03-19T02:26:40;25.50;;;11.55;;
41685;SDS011;27370;42.764;23.432;2023-03-19T02:29:07;22.55;;;11.35;;
41685;SDS011;27370;42.764;23.432;2023-03-19T02:31:34;23.65;;;11.88;;
41685;SDS011;27370;42.764;23.432;2023-03-19T02:34:03;23.88;;;12.45;;
41685;SDS011;27370;42.764;23.432;2023-03-19T02:36:40;24.92;;;12.60;;
41685;SDS011;27370;42.764;23.432;2023-03-19T02:39:28;26.38;;;13.95;;
41685;SDS011;27370;42.764;23.432;2023-03-19T02:41:57;23.98;;;12.82;;
41685;SDS011;27370;42.764;23.432;2023-03-19T02:44:25;24.47;;;12.60;;
41685;SDS011;27370;42.764;23.432;2023-03-19T02:46:51;28.25;;;16.45;;
41685;SDS011;27370;42.764;23.432;2023-03-19T02:49:16;34.55;;;19.95;;
41685;SDS011;27370;42.764;23.432;2023-03-19T02:51:43;33.03;;;19.77;;
41685;SDS011;27370;42.764;23.432;2023-03-19T02:54:09;29.17;;;18.20;;
41685;SDS011;27370;42.764;23.432;2023-03-19T02:56:34;29.98;;;16.92;;
41685;SDS011;27370;42.764;23.432;2023-03-19T02:59:00;23.65;;;14.05;;
41685;SDS011;27370;42.764;23.432;2023-03-19T03:01:25;25.95;;;14.63;;
41685;SDS011;27370;42.764;23.432;2023-03-19T03:03:51;19.95;;;11.23;;
41685;SDS011;27370;42.764;23.432;2023-03-19T03:06:17;23.63;;;13.85;;
41685;SDS011;27370;42.764;23.432;2023-03-19T03:08:42;22.88;;;12.65;;
41685;SDS011;27370;42.764;23.432;2023-03-19T03:11:08;24.95;;;12.50;;
41685;SDS011;27370;42.764;23.432;2023-03-19T03:13:34;25.17;;;13.30;;
41685;SDS011;27370;42.764;23.432;2023-03-19T03:16:00;22.90;;;13.90;;
41685;SDS011;27370;42.764;23.432;2023-03-19T03:18:27;20.70;;;11.60;;
41685;SDS011;27370;42.764;23.432;2023-03-19T03:20:52;21.70;;;11.65;;
41685;SDS011;27370;42.764;23.432;2023-03-19T03:23:18;17.00;;;9.73;;
41685;SDS011;27370;42.764;23.432;2023-03-19T03:25:49;17.98;;;10.65;;
41685;SDS011;27370;42.764;23.432;2023-03-19T03:28:16;16.90;;;8.70;;
41685;SDS011;27370;42.764;23.432;2023-03-19T03:30:43;18.02;;;9.07;;
41685;SDS011;27370;42.764;23.432;2023-03-19T03:33:09;16.75;;;9.45;;
41685;SDS011;27370;42.764;23.432;2023-03-19T03:35:35;17.88;;;8.70;;
41685;SDS011;27370;42.764;23.432;2023-03-19T03:38:01;16.00;;;7.90;;
41685;SDS011;27370;42.764;23.432;2023-03-19T03:40:27;16.83;;;8.63;;
41685;SDS011;27370;42.764;23.432;2023-03-19T03:42:53;18.13;;;7.97;;
41685;SDS011;27370;42.764;23.432;2023-03-19T03:45:19;16.70;;;8.43;;
41685;SDS011;27370;42.764;23.432;2023-03-19T03:47:45;17.27;;;7.88;;
41685;SDS011;27370;42.764;23.432;2023-03-19T03:50:10;14.57;;;8.20;;
41685;SDS011;27370;42.764;23.432;2023-03-19T03:52:37;16.17;;;8.27;;
41685;SDS011;27370;42.764;23.432;2023-03-19T03:55:04;15.73;;;8.50;;
41685;SDS011;27370;42.764;23.432;2023-03-19T03:57:29;15.43;;;7.97;;
41685;SDS011;27370;42.764;23.432;2023-03-19T03:59:55;16.98;;;8.70;;
41685;SDS011;27370;42.764;23.432;2023-03-19T04:02:21;15.75;;;8.52;;
41685;SDS011;27370;42.764;23.432;2023-03-19T04:04:47;13.40;;;8.07;;
41685;SDS011;27370;42.764;23.432;2023-03-19T04:07:13;17.08;;;8.35;;
41685;SDS011;27370;42.764;23.432;2023-03-19T04:09:50;15.70;;;8.07;;
41685;SDS011;27370;42.764;23.432;2023-03-19T04:12:16;13.80;;;7.60;;
41685;SDS011;27370;42.764;23.432;2023-03-19T04:14:41;16.75;;;8.10;;
41685;SDS011;27370;42.764;23.432;2023-03-19T04:17:08;14.75;;;7.65;;
41685;SDS011;27370;42.764;23.432;2023-03-19T04:19:34;16.73;;;8.00;;
41685;SDS011;27370;42.764;23.432;2023-03-19T04:22:00;13.50;;;7.57;;
41685;SDS011;27370;42.764;23.432;2023-03-19T04:24:28;16.10;;;7.57;;
41685;SDS011;27370;42.764;23.432;2023-03-19T04:26:53;19.00;;;11.05;;
41685;SDS011;27370;42.764;23.432;2023-03-19T04:29:19;21.52;;;11.55;;
41685;SDS011;27370;42.764;23.432;2023-03-19T04:31:45;20.60;;;11.38;;
41685;SDS011;27370;42.764;23.432;2023-03-19T04:34:11;20.10;;;13.02;;
41685;SDS011;27370;42.764;23.432;2023-03-19T04:36:37;21.58;;;11.93;;
41685;SDS011;27370;42.764;23.432;2023-03-19T04:39:03;20.77;;;10.65;;
41685;SDS011;27370;42.764;23.432;2023-03-19T04:41:29;22.58;;;12.93;;
41685;SDS011;27370;42.764;23.432;2023-03-19T04:44:22;24.38;;;15.90;;
41685;SDS011;27370;42.764;23.432;2023-03-19T04:46:48;30.00;;;16.38;;
41685;SDS011;27370;42.764;23.432;2023-03-19T04:49:15;27.95;;;16.95;;
41685;SDS011;27370;42.764;23.432;2023-03-19T04:51:40;22.60;;;12.45;;
41685;SDS011;27370;42.764;23.432;2023-03-19T04:54:06;19.50;;;10.00;;
41685;SDS011;27370;42.764;23.432;2023-03-19T04:56:33;18.40;;;10.27;;
41685;SDS011;27370;42.764;23.432;2023-03-19T04:58:58;19.67;;;11.65;;
41685;SDS011;27370;42.764;23.432;2023-03-19T05:01:24;18.25;;;9.73;;
41685;SDS011;27370;42.764;23.432;2023-03-19T05:03:59;21.35;;;10.52;;
41685;SDS011;27370;42.764;23.432;2023-03-19T05:06:25;18.70;;;9.88;;
41685;SDS011;27370;42.764;23.432;2023-03-19T05:08:51;17.92;;;9.95;;
41685;SDS011;27370;42.764;23.432;2023-03-19T05:11:18;22.65;;;13.90;;
41685;SDS011;27370;42.764;23.432;2023-03-19T05:14:00;29.00;;;16.10;;
41685;SDS011;27370;42.764;23.432;2023-03-19T05:16:32;19.08;;;10.60;;
41685;SDS011;27370;42.764;23.432;2023-03-19T05:18:59;20.83;;;13.55;;
41685;SDS011;27370;42.764;23.432;2023-03-19T05:21:25;19.98;;;10.10;;
41685;SDS011;27370;42.764;23.432;2023-03-19T05:23:52;18.90;;;9.13;;
41685;SDS011;27370;42.764;23.432;2023-03-19T05:26:19;17.17;;;9.10;;
41685;SDS011;27370;42.764;23.432;2023-03-19T05:29:14;21.80;;;8.45;;
41685;SDS011;27370;42.764;23.432;2023-03-19T05:31:53;17.58;;;7.82;;
41685;SDS011;27370;42.764;23.432;2023-03-19T05:34:19;15.68;;;8.20;;
41685;SDS011;27370;42.764;23.432;2023-03-19T05:36:46;14.68;;;7.75;;
41685;SDS011;27370;42.764;23.432;2023-03-19T05:39:16;20.30;;;9.02;;
41685;SDS011;27370;42.764;23.432;2023-03-19T05:41:42;18.10;;;8.77;;
41685;SDS011;27370;42.764;23.432;2023-03-19T05:44:09;16.52;;;8.70;;
41685;SDS011;27370;42.764;23.432;2023-03-19T05:46:54;16.92;;;8.57;;
41685;SDS011;27370;42.764;23.432;2023-03-19T05:49:22;17.92;;;9.05;;
41685;SDS011;27370;42.764;23.432;2023-03-19T05:51:48;18.60;;;9.70;;
41685;SDS011;27370;42.764;23.432;2023-03-19T05:54:13;15.77;;;8.68;;
41685;SDS011;27370;42.764;23.432;2023-03-19T05:57:08;16.55;;;8.38;;
41685;SDS011;27370;42.764;23.432;2023-03-19T05:59:42;15.18;;;7.53;;
41685;SDS011;27370;42.764;23.432;2023-03-19T06:02:21;14.77;;;8.13;;
41685;SDS011;27370;42.764;23.432;2023-03-19T06:04:50;17.23;;;8.45;;
41685;SDS011;27370;42.764;23.432;2023-03-19T06:07:20;15.43;;;7.45;;
41685;SDS011;27370;42.764;23.432;2023-03-19T06:09:46;15.00;;;7.55;;
41685;SDS011;27370;42.764;23.432;2023-03-19T06:12:11;13.32;;;7.50;;
41685;SDS011;27370;42.764;23.432;2023-03-19T06:14:43;16.20;;;8.57;;
41685;SDS011;27370;42.764;23.432;2023-03-19T06:17:34;16.17;;;8.32;;
41685;SDS011;27370;42.764;23.432;2023-03-19T06:20:04;14.15;;;7.57;;
41685;SDS011;27370;42.764;23.432;2023-03-19T06:22:30;16.17;;;8.77;;
41685;SDS011;27370;42.764;23.432;2023-03-19T06:24:56;18.23;;;10.63;;
41685;SDS011;27370;42.764;23.432;2023-03-19T06:27:21;20.08;;;9.73;;
41685;SDS011;27370;42.764;23.432;2023-03-19T06:29:48;29.38;;;15.13;;
41685;SDS011;27370;42.764;23.432;2023-03-19T06:32:22;30.42;;;15.55;;
41685;SDS011;27370;42.764;23.432;2023-03-19T06:34:51;35.00;;;15.07;;
41685;SDS011;27370;42.764;23.432;2023-03-19T06:37:19;34.90;;;15.82;;
41685;SDS011;27370;42.764;23.432;2023-03-19T06:39:45;36.28;;;19.52;;
41685;SDS011;27370;42.764;23.432;2023-03-19T06:42:11;36.22;;;17.40;;
41685;SDS011;27370;42.764;23.432;2023-03-19T06:44:37;31.30;;;15.63;;
41685;SDS011;27370;42.764;23.432;2023-03-19T06:47:02;26.55;;;13.30;;
41685;SDS011;27370;42.764;23.432;2023-03-19T06:49:29;30.27;;;13.43;;
41685;SDS011;27370;42.764;23.432;2023-03-19T06:51:54;24.42;;;12.27;;
41685;SDS011;27370;42.764;23.432;2023-03-19T06:54:20;25.83;;;12.02;;
41685;SDS011;27370;42.764;23.432;2023-03-19T06:56:45;24.60;;;11.73;;
41685;SDS011;27370;42.764;23.432;2023-03-19T06:59:11;24.02;;;11.90;;
41685;SDS011;27370;42.764;23.432;2023-03-19T07:01:38;20.65;;;11.70;;
41685;SDS011;27370;42.764;23.432;2023-03-19T07:04:05;20.70;;;11.57;;
41685;SDS011;27370;42.764;23.432;2023-03-19T07:06:31;18.58;;;10.52;;
41685;SDS011;27370;42.764;23.432;2023-03-19T07:08:58;19.67;;;10.73;;
41685;SDS011;27370;42.764;23.432;2023-03-19T07:11:24;19.02;;;10.25;;
41685;SDS011;27370;42.764;23.432;2023-03-19T07:13:50;22.55;;;10.98;;
41685;SDS011;27370;42.764;23.432;2023-03-19T07:16:15;18.02;;;10.27;;
41685;SDS011;27370;42.764;23.432;2023-03-19T07:18:40;17.58;;;9.50;;
41685;SDS011;27370;42.764;23.432;2023-03-19T07:21:06;21.83;;;11.27;;
41685;SDS011;27370;42.764;23.432;2023-03-19T07:23:31;21.40;;;11.82;;
41685;SDS011;27370;42.764;23.432;2023-03-19T07:25:57;20.45;;;11.35;;
41685;SDS011;27370;42.764;23.432;2023-03-19T07:28:23;19.33;;;10.38;;
41685;SDS011;27370;42.764;23.432;2023-03-19T07:30:50;19.73;;;11.02;;
41685;SDS011;27370;42.764;23.432;2023-03-19T07:33:17;20.20;;;10.85;;
41685;SDS011;27370;42.764;23.432;2023-03-19T07:35:42;20.83;;;10.77;;
41685;SDS011;27370;42.764;23.432;2023-03-19T07:38:08;18.92;;;10.52;;
41685;SDS011;27370;42.764;23.432;2023-03-19T07:40:34;16.80;;;9.02;;
41685;SDS011;27370;42.764;23.432;2023-03-19T07:42:59;16.98;;;9.15;;
41685;SDS011;27370;42.764;23.432;2023-03-19T07:45:24;20.67;;;12.00;;
41685;SDS011;27370;42.764;23.432;2023-03-19T07:47:50;24.58;;;13.60;;
41685;SDS011;27370;42.764;23.432;2023-03-19T07:50:16;19.33;;;11.65;;
41685;SDS011;27370;42.764;23.432;2023-03-19T07:52:44;19.95;;;11.80;;
41685;SDS011;27370;42.764;23.432;2023-03-19T07:55:11;22.27;;;11.93;;
41685;SDS011;27370;42.764;23.432;2023-03-19T07:57:37;17.80;;;10.85;;
41685;SDS011;27370;42.764;23.432;2023-03-19T08:00:03;18.08;;;10.45;;
41685;SDS011;27370;42.764;23.432;2023-03-19T08:02:38;17.20;;;9.80;;
41685;SDS011;27370;42.764;23.432;2023-03-19T08:05:05;16.58;;;9.50;;
41685;SDS011;27370;42.764;23.432;2023-03-19T08:07:31;17.60;;;9.45;;
41685;SDS011;27370;42.764;23.432;2023-03-19T08:09:56;15.57;;;8.82;;
41685;SDS011;27370;42.764;23.432;2023-03-19T08:12:25;16.48;;;8.82;;
41685;SDS011;27370;42.764;23.432;2023-03-19T08:14:51;15.87;;;8.57;;
41685;SDS011;27370;42.764;23.432;2023-03-19T08:17:16;14.57;;;9.07;;
41685;SDS011;27370;42.764;23.432;2023-03-19T08:19:42;19.55;;;10.10;;
41685;SDS011;27370;42.764;23.432;2023-03-19T08:22:08;15.38;;;9.40;;
41685;SDS011;27370;42.764;23.432;2023-03-19T08:24:33;15.18;;;9.02;;
41685;SDS011;27370;42.764;23.432;2023-03-19T08:26:59;16.95;;;8.38;;
41685;SDS011;27370;42.764;23.432;2023-03-19T08:29:24;15.13;;;7.95;;
41685;SDS011;27370;42.764;23.432;2023-03-19T08:31:53;15.65;;;7.95;;
41685;SDS011;27370;42.764;23.432;2023-03-19T08:34:20;14.35;;;7.75;;
41685;SDS011;27370;42.764;23.432;2023-03-19T08:36:46;14.45;;;7.88;;
41685;SDS011;27370;42.764;23.432;2023-03-19T08:39:12;15.50;;;7.40;;
41685;SDS011;27370;42.764;23.432;2023-03-19T08:41:38;14.63;;;7.90;;
41685;SDS011;27370;42.764;23.432;2023-03-19T08:44:03;12.60;;;7.00;;
41685;SDS011;27370;42.764;23.432;2023-03-19T08:46:29;14.60;;;8.13;;
41685;SDS011;27370;42.764;23.432;2023-03-19T08:48:54;13.63;;;7.10;;
41685;SDS011;27370;42.764;23.432;2023-03-19T08:51:20;13.95;;;7.18;;
41685;SDS011;27370;42.764;23.432;2023-03-19T08:53:48;12.30;;;6.35;;
41685;SDS011;27370;42.764;23.432;2023-03-19T08:56:13;12.93;;;6.55;;
41685;SDS011;27370;42.764;23.432;2023-03-19T08:58:39;12.00;;;6.53;;
41685;SDS011;27370;42.764;23.432;2023-03-19T09:01:07;14.07;;;6.32;;
41685;SDS011;27370;42.764;23.432;2023-03-19T09:03:35;12.87;;;7.37;;
41685;SDS011;27370;42.764;23.432;2023-03-19T09:06:02;13.32;;;6.07;;
41685;SDS011;27370;42.764;23.432;2023-03-19T09:08:29;13.65;;;6.38;;
41685;SDS011;27370;42.764;23.432;2023-03-19T09:10:55;10.57;;;5.57;;
41685;SDS011;27370;42.764;23.432;2023-03-19T09:13:21;11.65;;;6.30;;
41685;SDS011;27370;42.764;23.432;2023-03-19T09:15:47;11.70;;;6.18;;
41685;SDS011;27370;42.764;23.432;2023-03-19T09:18:13;11.43;;;6.18;;
41685;SDS011;27370;42.764;23.432;2023-03-19T09:20:39;13.10;;;6.57;;
41685;SDS011;27370;42.764;23.432;2023-03-19T09:23:06;12.73;;;6.00;;
41685;SDS011;27370;42.764;23.432;2023-03-19T09:25:31;11.95;;;5.72;;
41685;SDS011;27370;42.764;23.432;2023-03-19T09:27:57;11.18;;;6.43;;
41685;SDS011;27370;42.764;23.432;2023-03-19T09:30:22;12.73;;;5.90;;
41685;SDS011;27370;42.764;23.432;2023-03-19T09:32:48;11.52;;;5.80;;
41685;SDS011;27370;42.764;23.432;2023-03-19T09:35:14;14.65;;;6.18;;
41685;SDS011;27370;42.764;23.432;2023-03-19T09:37:39;9.45;;;4.72;;
41685;SDS011;27370;42.764;23.432;2023-03-19T09:40:05;9.30;;;4.82;;
41685;SDS011;27370;42.764;23.432;2023-03-19T09:42:48;13.07;;;6.47;;
41685;SDS011;27370;42.764;23.432;2023-03-19T09:45:22;11.38;;;5.68;;
41685;SDS011;27370;42.764;23.432;2023-03-19T09:47:50;10.57;;;4.65;;
41685;SDS011;27370;42.764;23.432;2023-03-19T09:50:21;9.85;;;4.80;;
41685;SDS011;27370;42.764;23.432;2023-03-19T09:58:16;7.88;;;3.90;;
41685;SDS011;27370;42.764;23.432;2023-03-19T10:00:50;8.10;;;3.90;;
41685;SDS011;27370;42.764;23.432;2023-03-19T10:16:33;10.48;;;3.97;;
41685;SDS011;27370;42.764;23.432;2023-03-19T10:19:01;14.30;;;4.35;;
41685;SDS011;27370;42.764;23.432;2023-03-19T10:21:39;7.72;;;4.00;;
41685;SDS011;27370;42.764;23.432;2023-03-19T10:24:23;7.90;;;4.00;;
41685;SDS011;27370;42.764;23.432;2023-03-19T10:26:59;9.82;;;4.05;;
41685;SDS011;27370;42.764;23.432;2023-03-19T10:29:29;9.02;;;3.70;;
41685;SDS011;27370;42.764;23.432;2023-03-19T10:34:41;9.15;;;4.50;;
41685;SDS011;27370;42.764;23.432;2023-03-19T10:39:36;8.80;;;3.72;;
41685;SDS011;27370;42.764;23.432;2023-03-19T10:45:25;9.57;;;4.18;;
41685;SDS011;27370;42.764;23.432;2023-03-19T10:47:59;9.77;;;4.05;;
41685;SDS011;27370;42.764;23.432;2023-03-19T10:50:36;8.37;;;3.90;;
41685;SDS011;27370;42.764;23.432;2023-03-19T10:55:45;7.47;;;3.42;;
41685;SDS011;27370;42.764;23.432;2023-03-19T10:58:15;8.73;;;4.03;;
41685;SDS011;27370;42.764;23.432;2023-03-19T11:00:54;9.20;;;4.50;;
41685;SDS011;27370;42.764;23.432;2023-03-19T11:06:03;8.05;;;4.20;;
41685;SDS011;27370;42.764;23.432;2023-03-19T11:08:38;7.78;;;3.95;;
41685;SDS011;27370;42.764;23.432;2023-03-19T11:11:03;8.27;;;4.25;;
41685;SDS011;27370;42.764;23.432;2023-03-19T11:13:29;7.13;;;3.67;;
41685;SDS011;27370;42.764;23.432;2023-03-19T11:15:59;7.68;;;3.90;;
41685;SDS011;27370;42.764;23.432;2023-03-19T11:18:29;10.85;;;5.88;;
41685;SDS011;27370;42.764;23.432;2023-03-19T11:21:05;7.88;;;3.33;;
41685;SDS011;27370;42.764;23.432;2023-03-19T11:23:37;7.45;;;3.45;;
41685;SDS011;27370;42.764;23.432;2023-03-19T11:26:04;8.57;;;3.25;;
41685;SDS011;27370;42.764;23.432;2023-03-19T11:28:31;5.68;;;3.08;;
41685;SDS011;27370;42.764;23.432;2023-03-19T11:31:17;7.45;;;3.40;;
41685;SDS011;27370;42.764;23.432;2023-03-19T11:37:08;8.25;;;3.40;;
41685;SDS011;27370;42.764;23.432;2023-03-19T11:39:43;10.13;;;3.17;;
41685;SDS011;27370;42.764;23.432;2023-03-19T12:12:41;4.55;;;2.03;;
41685;SDS011;27370;42.764;23.432;2023-03-19T12:15:26;4.00;;;2.22;;
41685;SDS011;27370;42.764;23.432;2023-03-19T12:24:03;2.97;;;1.75;;
41685;SDS011;27370;42.764;23.432;2023-03-19T12:26:44;4.05;;;2.13;;
41685;SDS011;27370;42.764;23.432;2023-03-19T12:29:38;4.47;;;2.38;;
41685;SDS011;27370;42.764;23.432;2023-03-19T12:32:11;4.45;;;2.10;;
41685;SDS011;27370;42.764;23.432;2023-03-19T12:34:51;4.55;;;2.08;;
41685;SDS011;27370;42.764;23.432;2023-03-19T12:42:45;4.82;;;2.60;;
41685;SDS011;27370;42.764;23.432;2023-03-19T12:47:53;4.90;;;2.20;;
41685;SDS011;27370;42.764;23.432;2023-03-19T12:50:27;4.35;;;2.20;;
41685;SDS011;27370;42.764;23.432;2023-03-19T12:52:55;3.78;;;2.08;;
41685;SDS011;27370;42.764;23.432;2023-03-19T12:55:32;4.35;;;2.13;;
41685;SDS011;27370;42.764;23.432;2023-03-19T13:00:50;3.95;;;1.80;;
41685;SDS011;27370;42.764;23.432;2023-03-19T13:03:26;5.43;;;2.30;;
41685;SDS011;27370;42.764;23.432;2023-03-19T13:06:05;3.58;;;1.88;;
41685;SDS011;27370;42.764;23.432;2023-03-19T13:11:45;3.35;;;1.85;;
41685;SDS011;27370;42.764;23.432;2023-03-19T13:14:24;3.90;;;1.90;;
41685;SDS011;27370;42.764;23.432;2023-03-19T13:23:04;2.92;;;1.40;;
41685;SDS011;27370;42.764;23.432;2023-03-19T13:25:34;2.78;;;1.50;;
41685;SDS011;27370;42.764;23.432;2023-03-19T13:28:11;2.50;;;1.30;;
41685;SDS011;27370;42.764;23.432;2023-03-19T13:30:57;3.72;;;1.40;;
41685;SDS011;27370;42.764;23.432;2023-03-19T13:33:25;2.38;;;1.35;;
41685;SDS011;27370;42.764;23.432;2023-03-19T13:35:51;2.45;;;1.10;;
41685;SDS011;27370;42.764;23.432;2023-03-19T13:38:20;1.50;;;1.13;;
41685;SDS011;27370;42.764;23.432;2023-03-19T13:40:51;1.77;;;1.30;;
41685;SDS011;27370;42.764;23.432;2023-03-19T13:46:28;2.97;;;1.60;;
41685;SDS011;27370;42.764;23.432;2023-03-19T13:49:24;2.17;;;1.48;;
41685;SDS011;27370;42.764;23.432;2023-03-19T13:51:57;2.72;;;1.25;;
41685;SDS011;27370;42.764;23.432;2023-03-19T13:54:32;2.30;;;1.23;;
41685;SDS011;27370;42.764;23.432;2023-03-19T13:59:38;3.08;;;1.35;;
41685;SDS011;27370;42.764;23.432;2023-03-19T14:04:49;2.67;;;1.20;;
41685;SDS011;27370;42.764;23.432;2023-03-19T14:07:21;3.13;;;1.20;;
41685;SDS011;27370;42.764;23.432;2023-03-19T14:12:33;3.03;;;1.38;;
41685;SDS011;27370;42.764;23.432;2023-03-19T14:17:33;2.58;;;1.15;;
41685;SDS011;27370;42.764;23.432;2023-03-19T14:22:38;4.35;;;1.88;;
41685;SDS011;27370;42.764;23.432;2023-03-19T14:25:27;4.25;;;1.60;;
41685;SDS011;27370;42.764;23.432;2023-03-19T14:28:17;2.65;;;1.40;;
41685;SDS011;27370;42.764;23.432;2023-03-19T14:30:47;2.72;;;1.50;;
41685;SDS011;27370;42.764;23.432;2023-03-19T14:33:17;4.07;;;1.95;;
41685;SDS011;27370;42.764;23.432;2023-03-19T14:35:47;4.03;;;1.55;;
41685;SDS011;27370;42.764;23.432;2023-03-19T14:38:31;2.47;;;1.60;;
41685;SDS011;27370;42.764;23.432;2023-03-19T14:41:01;2.33;;;1.33;;
41685;SDS011;27370;42.764;23.432;2023-03-19T14:46:27;3.58;;;1.30;;
41685;SDS011;27370;42.764;23.432;2023-03-19T14:55:19;3.08;;;1.60;;
41685;SDS011;27370;42.764;23.432;2023-03-19T14:57:45;3.65;;;1.90;;
41685;SDS011;27370;42.764;23.432;2023-03-19T15:00:14;2.88;;;1.40;;
41685;SDS011;27370;42.764;23.432;2023-03-19T15:02:44;4.50;;;1.88;;
41685;SDS011;27370;42.764;23.432;2023-03-19T15:07:58;2.95;;;1.83;;
41685;SDS011;27370;42.764;23.432;2023-03-19T15:10:31;5.22;;;1.92;;
41685;SDS011;27370;42.764;23.432;2023-03-19T15:15:55;3.67;;;1.85;;
41685;SDS011;27370;42.764;23.432;2023-03-19T15:18:32;6.07;;;2.10;;
41685;SDS011;27370;42.764;23.432;2023-03-19T15:21:01;3.55;;;1.75;;
41685;SDS011;27370;42.764;23.432;2023-03-19T15:23:28;4.82;;;2.33;;
41685;SDS011;27370;42.764;23.432;2023-03-19T15:25:56;7.93;;;2.78;;
41685;SDS011;27370;42.764;23.432;2023-03-19T15:33:23;16.35;;;8.65;;
41685;SDS011;27370;42.764;23.432;2023-03-19T15:35:59;10.77;;;3.90;;
41685;SDS011;27370;42.764;23.432;2023-03-19T15:38:34;9.00;;;3.33;;
41685;SDS011;27370;42.764;23.432;2023-03-19T15:41:06;8.75;;;3.72;;
41685;SDS011;27370;42.764;23.432;2023-03-19T15:43:34;8.03;;;2.50;;
41685;SDS011;27370;42.764;23.432;2023-03-19T15:46:03;7.35;;;2.75;;
41685;SDS011;27370;42.764;23.432;2023-03-19T15:48:43;8.70;;;2.83;;
41685;SDS011;27370;42.764;23.432;2023-03-19T15:51:15;6.50;;;2.80;;
41685;SDS011;27370;42.764;23.432;2023-03-19T15:53:43;5.32;;;2.00;;
41685;SDS011;27370;42.764;23.432;2023-03-19T15:56:10;5.32;;;2.30;;
41685;SDS011;27370;42.764;23.432;2023-03-19T15:58:39;12.70;;;4.13;;
41685;SDS011;27370;42.764;23.432;2023-03-19T16:01:09;11.93;;;4.18;;
41685;SDS011;27370;42.764;23.432;2023-03-19T16:03:37;10.73;;;3.60;;
41685;SDS011;27370;42.764;23.432;2023-03-19T16:06:05;7.68;;;2.80;;
41685;SDS011;27370;42.764;23.432;2023-03-19T16:08:37;8.90;;;2.75;;
41685;SDS011;27370;42.764;23.432;2023-03-19T16:11:11;7.65;;;3.05;;
41685;SDS011;27370;42.764;23.432;2023-03-19T16:13:38;9.05;;;4.20;;
41685;SDS011;27370;42.764;23.432;2023-03-19T16:16:06;9.38;;;4.63;;
41685;SDS011;27370;42.764;23.432;2023-03-19T16:18:51;7.32;;;3.45;;
41685;SDS011;27370;42.764;23.432;2023-03-19T16:21:40;8.70;;;3.60;;
41685;SDS011;27370;42.764;23.432;2023-03-19T16:26:38;10.90;;;4.38;;
41685;SDS011;27370;42.764;23.432;2023-03-19T16:31:42;12.48;;;5.80;;
41685;SDS011;27370;42.764;23.432;2023-03-19T16:34:23;14.85;;;6.82;;
41685;SDS011;27370;42.764;23.432;2023-03-19T16:36:53;12.23;;;5.75;;
41685;SDS011;27370;42.764;23.432;2023-03-19T16:39:35;14.30;;;5.75;;
41685;SDS011;27370;42.764;23.432;2023-03-19T16:44:52;15.43;;;5.78;;
41685;SDS011;27370;42.764;23.432;2023-03-19T16:47:17;12.20;;;5.45;;
41685;SDS011;27370;42.764;23.432;2023-03-19T16:49:44;19.17;;;5.60;;
41685;SDS011;27370;42.764;23.432;2023-03-19T16:52:16;11.55;;;4.18;;
41685;SDS011;27370;42.764;23.432;2023-03-19T16:54:44;15.90;;;5.38;;